Text analysis for y (yalkhudairi)

Return to profile of y (yalkhudairi)

View texts not yet raced by y (yalkhudairi)

Sorted by best race

Rank Text Best WPM Overall Difficulty Relative Speed Text Length Races Average WPM Last race
1. I tried to save the Shire, and it has been saved, but not fo... 133.72 1.0540 0.1000 260 1 133.72 2020-01-11
2. I felt good and all washed clean of sin for the first time I... 131.92 1.0989 0.0408 302 1 131.92 2020-01-11
3. We've had vicious kings and we've had idiot kings, but I don... 130.12 0.9755 0.1476 126 1 130.12 2020-01-11
4. They may have even had a brief discussion about recovering m... 130.02 0.9473 0.1798 349 1 130.02 2020-01-11
5. The math is compelling. Most of the people in the world are ... 129.54 1.0321 0.0886 343 1 129.54 2020-01-11
6. Just because there are things I don't remember doesn't make ... 127.85 1.0589 0.0456 151 1 127.85 2020-01-11
7. A year has passed since I wrote my note but I should have kn... 127.62 1.0674 0.0348 177 1 127.62 2019-12-23
8. All that year the animals worked like slaves. But they were ... 125.93 1.0399 0.0475 294 1 125.93 2020-01-11
9. You been confusing since the day I met you. Another night ch... 125.81 1.0256 0.0608 207 1 125.81 2020-01-11
10. Focus your attention on the Now and tell me what problem you... 125.44 1.1022 0.0105 259 1 125.44 2020-01-11
11. He was close, real close. I couldn't see him yet, but I coul... 125.02 1.0540 0.0252 249 1 125.02 2020-01-11
12. I was once like you are now, and I know that it's not easy t... 124.34 1.1106 -0.0383 235 1 124.34 2020-01-11
13. I wish that strife would vanish away from among gods and mor... 123.77 1.0656 0.0043 264 1 123.77 2020-01-11
14. Jerry, if you think that by threatening me you can get me to... 123.15 1.0441 0.0189 261 1 123.15 2019-12-23
15. You were the chosen one! It was said that you would destroy ... 122.98 1.0197 0.0419 150 1 122.98 2020-01-11
16. He rode past me and kept on goin'. Never said nothin' goin' ... 122.64 1.0502 0.0192 535 1 122.64 2020-01-11
17. In a business like this the people with the power are the on... 122.16 1.1108 -0.0567 143 1 122.16 2019-12-23
18. Imagine a vast sheet of paper on which straight Lines, Trian... 122.10 0.9672 0.0880 396 1 122.10 2020-01-11
19. The other night, dear, as I lay sleeping, I dreamed I held y... 121.89 0.9770 0.0779 442 1 121.89 2019-12-23
20. Have you ever felt so strong that it made you feel weak? Lon... 121.53 1.0338 0.0137 294 1 121.53 2020-01-11
21. As he watches through the door, his smile pulls in more and ... 121.01 1.0332 0.0108 263 1 121.01 2020-01-11
22. Mom, I know your intentions are good but aren't the police t... 121.01 0.9654 0.0830 248 1 121.01 2019-12-23
23. Too often writers believe that they can emphasize words by p... 120.68 1.0073 0.0355 369 1 120.68 2020-01-11
24. What you do as soon as you get up can underpin and affect yo... 120.66 1.0448 -0.0025 291 1 120.66 2020-01-11
25. I had the same room which Finny and I had shared during the ... 120.63 0.9691 0.0753 329 1 120.63 2020-01-11
26. Walked out this morning, I don't believe what I saw: a hundr... 120.48 0.9475 0.0943 186 1 120.48 2020-01-11
27. Sometimes I wondered if I was seeing the same things through... 120.48 1.0956 -0.0549 160 1 120.48 2020-01-11
28. These memories lose their meaning when I think of love as so... 120.47 1.0975 -0.0587 197 1 120.47 2020-01-11
29. Join in with me, with me. We'll fly on someone else's wings,... 120.42 1.0221 0.0186 426 1 120.42 2020-01-11
30. In one respect, man is the nearest thing to me, so far as I ... 120.30 1.0338 0.0094 645 1 120.30 2019-12-23
31. You could not live with your own failure. And where did that... 120.24 1.0719 -0.0343 329 1 120.24 2020-01-11
32. Now that I know that I'm breaking to pieces, I'll pull out m... 119.75 1.0261 0.0328 410 1 119.75 2020-01-11
33. Court-reporting schools were prime sources of notereaders, e... 119.62 0.9209 0.1153 212 1 119.62 2020-01-11
34. I give it to you not that you may remember time, but that yo... 119.40 1.0536 -0.0209 331 1 119.40 2020-01-11
35. When I was a child, I heard voices. Some would sing and some... 119.28 1.0431 -0.0113 399 1 119.28 2020-01-11
36. And you know it's time to go, through the sleet and driving ... 118.99 1.0487 -0.0240 231 1 118.99 2020-01-11
37. I will rain down silver and gold for you. I will shatter the... 118.60 1.0558 -0.0341 274 1 118.60 2020-01-11
38. There are many ways to get out; surrender is one, losing is ... 118.46 1.0206 0.0019 294 1 118.46 2020-01-11
39. Being able to quit things that don't work is integral to bei... 118.22 1.0213 -0.0022 240 1 118.22 2019-12-23
40. Data is by definition easy to copy. And the Internet makes c... 118.17 0.9500 0.0704 362 1 118.17 2019-12-23
41. The wind was bitterly cold. The snow swirled, blurring his v... 117.89 1.0005 0.0195 298 1 117.89 2020-01-11
42. We give it away with nothing left to lose. Got the strongest... 117.77 1.0380 -0.0210 195 1 117.77 2020-01-11
43. No, that is what I'm trying to tell you. He is still a child... 117.33 1.0493 -0.0368 306 1 117.33 2020-01-11
44. Lucid but wholly false recollections can easily be induced b... 116.59 0.9886 0.0176 220 1 116.59 2020-01-11
45. When my son was born healthy, I never asked why. Why was I s... 116.53 0.9186 0.0912 227 1 116.53 2020-01-11
46. Now that I look back, I don't know why I was so stressed abo... 116.44 1.1089 -0.1029 164 1 116.44 2020-01-12
47. We settled down together, in the bow of the boat, and we loo... 116.05 1.0269 -0.0253 356 1 116.05 2020-01-11
48. The only people for me are the mad ones, the ones who are ma... 115.70 1.0063 -0.0082 371 1 115.70 2020-01-11
49. Les, there are two kinds of women in this world: there are w... 115.40 0.9625 0.0358 257 1 115.40 2020-01-11
50. Take my hand for a minute. We're in it. Imagine all the pain... 115.32 0.9814 0.0148 329 1 115.32 2020-01-11
51. Ladies and gentlemen, this is your stewardess speaking. We r... 115.24 0.9403 0.0576 330 1 115.24 2020-01-11
52. I tensed, waiting for the fury - both his and mine - but it ... 114.84 1.0026 -0.0114 170 1 114.84 2020-01-11
53. Only, we must allow time. But our demands as far as time is ... 114.82 1.0706 -0.0773 532 1 114.82 2020-01-11
54. We imagine that when we are thrown out of our usual ruts all... 114.52 1.0967 -0.1076 194 1 114.52 2020-01-11
55. All time is all time. It does not change. It does not lend i... 114.28 1.0390 -0.0552 205 1 114.28 2020-01-11
56. It is very seldom that mere ordinary people like John and my... 114.16 0.9362 0.0524 407 1 114.16 2020-01-11
57. Okay, go ahead. Call her, get married, have babies, have a g... 114.02 0.9225 0.0638 290 1 114.02 2020-01-11
58. It seems to me I am trying to tell you a dream - making a va... 114.02 0.9780 0.0076 314 1 114.02 2020-01-11
59. If you can't focus at all, it's also good to confine yoursel... 113.97 0.9689 0.0200 471 1 113.97 2020-01-11
60. Look at it. Oh, it's suffocating. Well, it's the smog. You k... 113.96 0.9269 0.0581 241 1 113.96 2020-01-11
61. He is here, actually he was here! He's just nipped out to go... 113.39 1.0273 -0.0484 256 1 113.39 2019-12-23
62. All I want to do is graduate from high school, go to Europe,... 113.37 0.9546 0.0268 271 1 113.37 2020-01-11
63. This is for the record. History is written by the victor. Hi... 113.32 1.0178 -0.0391 397 1 113.32 2020-01-11
64. He had spent enormous amounts of time at the great libraries... 113.17 0.9426 0.0351 317 1 113.17 2020-01-11
65. Woke up, fell out of bed, dragged a comb across my head. Fou... 113.09 0.9482 0.0308 281 1 113.09 2020-01-11
66. So this is it. You are scored on my heart, Clark. You were f... 113.07 1.0397 -0.0630 206 1 113.07 2020-01-11
67. I love bagels even though they are one of mankind's most dan... 112.96 1.0379 -0.0636 321 1 112.96 2020-01-11
68. But no. She shook her head, an imperceptible, forgiving shru... 112.77 0.9259 0.0499 308 1 112.77 2020-01-11
69. See the stone set in your eyes, see the thorn twist in your ... 112.40 1.0377 -0.0676 177 1 112.40 2020-01-11
70. Says who? Just so you know, the people who talk that way thi... 112.39 1.0378 -0.0669 351 1 112.39 2020-01-11
71. And baseball was proof positive that democracy was real. A b... 112.12 1.0132 -0.0464 303 1 112.12 2020-01-11
72. I'm not fighting because of my feelings of debt or obligatio... 112.11 0.9712 0.0003 692 1 112.11 2020-01-11
73. We're really seeing a great game here. Uh, it almost - uh, S... 112.10 0.9492 0.0207 208 1 112.10 2020-01-11
74. The process of determining what pixels should be written for... 111.89 0.9307 0.0387 272 1 111.89 2020-01-11
75. Although today dalmatians serve primarily as firehouse masco... 111.85 0.9204 0.0487 310 1 111.85 2020-01-11
76. People remember their high school days as the high point of ... 111.58 1.0301 -0.0647 482 1 111.58 2020-01-11
77. Do you understand the expense people went through to keep yo... 111.45 1.0577 -0.0957 228 1 111.45 2020-01-11
78. If I ruled the world, every man would see the world was his ... 111.01 1.0276 -0.0708 224 1 111.01 2020-01-11
79. Now I done grew up 'round some people livin' their life in b... 110.99 0.9425 0.0182 272 1 110.99 2020-01-11
80. We hold our rifles in missing hands. We stand tall on missin... 110.71 1.0026 -0.0464 256 1 110.71 2020-01-11
81. I was a son. A brother, like you, a younger brother, and I h... 110.27 0.9588 -0.0041 326 1 110.27 2019-12-23
82. I can't see the rationality. The world's not my responsibili... 110.09 0.9029 0.0488 218 1 110.09 2020-01-11
83. Oxygen will run out tomorrow morning, and that'll be it. And... 109.97 0.9515 0.0007 513 1 109.97 2020-01-11
84. And high above, depicted in a tower, sat Conquest, robed in ... 109.96 0.9399 0.0099 163 1 109.96 2020-01-11
85. Between me and the other world there is ever an unasked ques... 109.72 0.9599 -0.0104 201 1 109.72 2020-01-11
86. So you think you can stone me and spit in my eye? So you thi... 109.63 1.0331 -0.0877 307 1 109.63 2020-01-11
87. Let's go in the garden. You'll see something waiting, right ... 109.58 1.0311 -0.0876 206 1 109.58 2020-01-11
88. I would rather not have upset him, but I couldn't see any re... 109.57 1.0278 -0.0822 271 1 109.57 2020-01-11
89. It is a period of civil war. Rebel spaceships, striking from... 109.48 0.9372 0.0086 320 1 109.48 2019-12-23
90. You've gotta be cool on Wall Street when your index is low. ... 109.30 0.9217 0.0233 235 1 109.30 2020-01-11
91. The Altair was tedious to use. At first, the only way that d... 107.71 0.8902 0.0430 378 1 107.71 2020-01-11
92. I love Canada. I miss the heat of India, the food, the house... 107.34 0.9564 -0.0273 390 1 107.34 2020-01-11
93. Sometimes at night I let it get to me. And sometimes, I'm su... 107.02 1.0801 -0.1581 212 1 107.02 2020-01-11
94. I don't like you, but I love you. Seems that I'm always thin... 106.79 1.0238 -0.1053 293 1 106.79 2020-01-11
95. I made "Jesus Walks" I'm never going to hell. Couture level ... 106.69 0.8667 0.0566 371 1 106.69 2020-01-11
96. That's the engineer of the Excess Express. Talk about a drea... 106.60 0.9065 0.0147 235 1 106.60 2020-01-11
97. It was miraculous. It was almost no trick at all, he saw, to... 105.86 0.8570 0.0606 365 1 105.86 2020-01-11
98. I was never more hated than when I tried to be honest. Or wh... 105.47 1.0203 -0.1106 164 1 105.47 2020-01-11
99. Late in the afternoon of a day in the early part of last Dec... 105.23 0.9618 -0.0505 551 1 105.23 2020-01-11
100. Yes, of course duct tape works in a near-vacuum. Duct tape w... 104.68 0.9115 -0.0068 118 1 104.68 2020-01-11
101. Lesser than Macbeth, and greater. Not so happy, yet much hap... 104.33 0.8748 0.0260 141 1 104.33 2020-01-11
102. I know what you think it means, sonny. To me, it's just a ma... 103.29 0.9813 -0.0897 225 1 103.29 2020-01-11
103. I lie here on this great immovable bed - it is nailed down, ... 103.23 0.9656 -0.0719 365 1 103.23 2020-01-11
104. Anyone seen this before? The Laffer curve. Anyone know what ... 101.67 0.8331 0.0479 331 1 101.67 2020-01-11
105. History is not merely a linear collection of points that we ... 100.18 1.0879 -0.2235 187 1 100.18 2020-01-11
106. There's a world of difference between being called crow-head... 99.11 0.9045 -0.0482 205 1 99.11 2020-01-11
107. I figured I could get a job at a filling station somewhere, ... 96.09 1.0058 -0.1765 201 1 96.09 2020-01-11
108. Aladeen: Hey, do you remember my favorite sports car? Nadal:... 95.26 0.8046 0.0212 828 1 95.26 2020-01-11